Alpha, Iowa
Current Conditions -  °F | °C
As of 8:55 AM on Sunday 21 Dec 2014 (Local Time) from KDEH Reporting Station
Haze Haze  
Wind Chill: 26°   Ceiling: 300
Heat Index: 34°   Visibility: 1mi
Dew Point: 34°   Wind: 10mph
Humidity: 100%   Direction: 180°S
Pressure: 29.96"   Gusts: 20mph
Location:  43.0382°N, 92.0219°W
Report Text: KDEH 211455Z AUTO 18009G17KT 1SM BR OVC003 01/01 A2996 RMK AO2
Loading
Personal Weather Stations






























Interactive Weather Map New forecast layout! Learn more

10-Day Weather Forecast

Advertisements
Track Severe Weather on mobile